createdAt,value
2018-08-24T00:00:28.698Z,24.1
2018-08-24T00:01:09.305Z,24.08
2018-08-24T00:01:49.867Z,24.17
2018-08-24T00:02:30.418Z,24.08
2018-08-24T00:03:11.156Z,24.1
2018-08-24T00:03:52.218Z,24.11
2018-08-24T00:04:32.927Z,24.05
2018-08-24T00:05:13.496Z,24.05
2018-08-24T00:05:54.075Z,24.13
2018-08-24T00:06:34.708Z,23.95
2018-08-24T00:07:15.492Z,23.98
2018-08-24T00:07:56.105Z,23.99
2018-08-24T00:08:36.744Z,24.05
2018-08-24T00:09:17.380Z,23.96
2018-08-24T00:09:57.950Z,23.96
2018-08-24T00:10:38.578Z,23.91
2018-08-24T00:11:19.185Z,23.96
2018-08-24T00:11:59.830Z,23.92
2018-08-24T00:12:40.410Z,23.92
2018-08-24T00:13:20.983Z,23.91
2018-08-24T00:14:01.580Z,23.88
2018-08-24T00:14:42.187Z,23.88
2018-08-24T00:15:22.809Z,23.81
2018-08-24T00:16:04.078Z,23.88
2018-08-24T00:16:44.659Z,23.88
2018-08-24T00:17:25.259Z,23.84
2018-08-24T00:18:05.872Z,23.84
2018-08-24T00:18:46.434Z,23.91
2018-08-24T00:19:27.004Z,23.88
2018-08-24T00:20:07.581Z,23.83
2018-08-24T00:20:48.148Z,23.87
2018-08-24T00:21:28.697Z,23.86
2018-08-24T00:22:09.278Z,23.86
2018-08-24T00:22:49.859Z,23.87
2018-08-24T00:23:30.434Z,23.83
2018-08-24T00:24:11.006Z,23.84
2018-08-24T00:24:51.553Z,23.83
2018-08-24T00:25:32.107Z,23.83
2018-08-24T00:26:12.673Z,23.8
2018-08-24T00:26:53.254Z,23.78
2018-08-24T00:27:33.787Z,23.77
2018-08-24T00:28:14.350Z,23.76
2018-08-24T00:28:54.908Z,23.78
2018-08-24T00:29:35.476Z,23.77
2018-08-24T00:30:16.046Z,23.74
2018-08-24T00:30:56.612Z,23.77
2018-08-24T00:31:37.175Z,23.76
2018-08-24T00:32:17.755Z,23.68
2018-08-24T00:32:58.322Z,23.76
2018-08-24T00:33:38.889Z,23.77
2018-08-24T00:34:19.440Z,23.73
2018-08-24T00:34:59.996Z,23.71
2018-08-24T00:35:40.585Z,23.66
2018-08-24T00:36:21.121Z,23.63
2018-08-24T00:37:01.684Z,23.65
2018-08-24T00:37:42.246Z,23.66
2018-08-24T00:38:22.804Z,23.62
2018-08-24T00:39:03.359Z,23.61
2018-08-24T00:39:43.939Z,23.65
2018-08-24T00:40:24.489Z,23.63
2018-08-24T00:41:05.133Z,23.62
2018-08-24T00:41:45.724Z,23.66
2018-08-24T00:42:26.299Z,23.62
2018-08-24T00:43:06.844Z,23.54
2018-08-24T00:43:47.407Z,23.58
2018-08-24T00:44:27.982Z,23.58
2018-08-24T00:45:08.538Z,23.59
2018-08-24T00:45:49.126Z,23.59
2018-08-24T00:46:29.707Z,23.54
2018-08-24T00:47:10.257Z,23.61
2018-08-24T00:47:50.849Z,23.5
2018-08-24T00:48:31.418Z,23.55
2018-08-24T00:49:11.993Z,23.48
2018-08-24T00:49:52.547Z,23.48
2018-08-24T00:50:33.117Z,23.48
2018-08-24T00:51:13.669Z,23.51
2018-08-24T00:51:54.222Z,23.39
2018-08-24T00:52:34.789Z,23.51
2018-08-24T00:53:15.414Z,23.46
2018-08-24T00:53:55.983Z,23.47
2018-08-24T00:54:36.552Z,23.36
2018-08-24T00:55:17.120Z,23.37
2018-08-24T00:55:57.690Z,23.39
2018-08-24T00:56:38.237Z,23.4
2018-08-24T00:57:18.796Z,23.36
2018-08-24T00:57:59.362Z,23.39
2018-08-24T00:58:39.927Z,23.37
2018-08-24T00:59:20.504Z,23.31
2018-08-24T01:00:01.120Z,23.34
2018-08-24T01:00:41.656Z,23.34
2018-08-24T01:01:22.242Z,23.34
2018-08-24T01:02:02.821Z,23.31
2018-08-24T01:02:43.390Z,23.25
2018-08-24T01:03:23.969Z,23.27
2018-08-24T01:04:04.530Z,23.21
2018-08-24T01:04:45.097Z,23.2
2018-08-24T01:05:25.720Z,23.34
2018-08-24T01:06:06.363Z,23.21
2018-08-24T01:06:46.963Z,23.27
2018-08-24T01:07:27.585Z,23.23
2018-08-24T01:08:08.126Z,23.27
2018-08-24T01:08:48.680Z,23.2
2018-08-24T01:09:29.248Z,23.27
2018-08-24T01:10:09.805Z,23.25
2018-08-24T01:10:50.379Z,23.31
2018-08-24T01:11:30.940Z,23.31
2018-08-24T01:12:11.510Z,23.31
2018-08-24T01:12:52.084Z,23.32
2018-08-24T01:13:32.644Z,23.24
2018-08-24T01:14:13.208Z,23.25
2018-08-24T01:14:53.769Z,23.15
2018-08-24T01:15:34.332Z,23.25
2018-08-24T01:16:14.892Z,23.23
2018-08-24T01:16:55.478Z,23.23
2018-08-24T01:17:36.052Z,23.13
2018-08-24T01:18:16.673Z,23.17
2018-08-24T01:18:57.242Z,23.2
2018-08-24T01:19:37.797Z,23.2
2018-08-24T01:20:18.376Z,23.13
2018-08-24T01:20:58.943Z,23.18
2018-08-24T01:21:39.491Z,23.21
2018-08-24T01:22:20.063Z,23.17
2018-08-24T01:23:00.628Z,23.23
2018-08-24T01:23:41.193Z,23.28
2018-08-24T01:24:21.763Z,23.24
2018-08-24T01:25:02.321Z,23.18
2018-08-24T01:25:42.880Z,23.27
2018-08-24T01:26:23.463Z,23.2
2018-08-24T01:27:04.028Z,23.34
2018-08-24T01:27:44.583Z,23.36
2018-08-24T01:28:25.129Z,23.31
2018-08-24T01:29:05.697Z,23.21
2018-08-24T01:29:46.289Z,23.34
2018-08-24T01:30:26.839Z,23.34
2018-08-24T01:31:07.398Z,23.39
2018-08-24T01:31:47.960Z,23.37
2018-08-24T01:32:28.515Z,23.32
2018-08-24T01:33:09.078Z,23.4
2018-08-24T01:33:49.639Z,23.34
2018-08-24T01:34:30.203Z,23.32
2018-08-24T01:35:10.760Z,23.37
2018-08-24T01:35:51.320Z,23.31
2018-08-24T01:36:31.907Z,23.34
2018-08-24T01:37:12.465Z,23.31
2018-08-24T01:37:53.025Z,23.24
2018-08-24T01:38:33.594Z,23.2
2018-08-24T01:39:14.211Z,23.32
2018-08-24T01:39:54.757Z,23.2
2018-08-24T01:40:35.322Z,23.25
2018-08-24T01:41:15.891Z,23.2
2018-08-24T01:41:56.452Z,23.17
2018-08-24T01:42:37.023Z,23.24
2018-08-24T01:43:17.601Z,23.15
2018-08-24T01:43:58.166Z,23.12
2018-08-24T01:44:38.726Z,23.13
2018-08-24T01:45:19.293Z,23.15
2018-08-24T01:45:59.858Z,23.18
2018-08-24T01:46:40.416Z,23.06
2018-08-24T01:47:20.981Z,23.17
2018-08-24T01:48:01.549Z,23.12
2018-08-24T01:48:42.122Z,23.12
2018-08-24T01:49:22.678Z,23.17
2018-08-24T01:50:03.231Z,23.09
2018-08-24T01:50:43.796Z,23.1
2018-08-24T01:51:24.363Z,23.18
2018-08-24T01:52:04.940Z,23.18
2018-08-24T01:52:45.511Z,23.1
2018-08-24T01:53:26.089Z,23.12
2018-08-24T01:54:06.661Z,23.15
2018-08-24T01:54:47.215Z,23.2
2018-08-24T01:55:27.782Z,23.1
2018-08-24T01:56:08.333Z,23.08
2018-08-24T01:56:48.893Z,23.1
2018-08-24T01:57:29.457Z,23.03
2018-08-24T01:58:10.061Z,23.1
2018-08-24T01:58:50.625Z,23.03
2018-08-24T01:59:31.188Z,23.05
2018-08-24T02:00:11.774Z,23.05
2018-08-24T02:00:52.337Z,22.99
2018-08-24T02:01:32.909Z,23.02
2018-08-24T02:02:13.510Z,22.99
2018-08-24T02:02:54.087Z,22.96
2018-08-24T02:03:34.645Z,23
2018-08-24T02:04:15.218Z,22.98
2018-08-24T02:04:55.792Z,22.94
2018-08-24T02:05:36.360Z,22.99
2018-08-24T02:06:16.952Z,22.99
2018-08-24T02:06:57.570Z,22.84
2018-08-24T02:07:38.130Z,22.91
2018-08-24T02:08:18.670Z,22.88
2018-08-24T02:08:59.235Z,22.99
2018-08-24T02:09:39.826Z,22.91
2018-08-24T02:10:20.388Z,22.91
2018-08-24T02:11:00.958Z,22.9
2018-08-24T02:11:41.531Z,22.88
2018-08-24T02:12:22.089Z,22.84
2018-08-24T02:13:02.652Z,22.83
2018-08-24T02:13:43.218Z,22.8
2018-08-24T02:14:23.839Z,22.85
2018-08-24T02:15:04.396Z,22.78
2018-08-24T02:15:44.960Z,22.85
2018-08-24T02:16:25.528Z,22.83
2018-08-24T02:17:06.097Z,22.8
2018-08-24T02:17:46.654Z,22.83
2018-08-24T02:18:27.211Z,22.76
2018-08-24T02:19:07.776Z,22.81
2018-08-24T02:19:48.345Z,22.83
2018-08-24T02:20:28.911Z,22.84
2018-08-24T02:21:09.469Z,22.93
2018-08-24T02:21:50.016Z,22.88
2018-08-24T02:22:30.581Z,22.87
2018-08-24T02:23:11.139Z,22.94
2018-08-24T02:23:51.698Z,22.94
2018-08-24T02:24:32.264Z,22.83
2018-08-24T02:25:12.828Z,22.8
2018-08-24T02:25:53.391Z,22.75
2018-08-24T02:26:33.950Z,22.76
2018-08-24T02:27:14.549Z,22.8
2018-08-24T02:27:55.108Z,22.73
2018-08-24T02:28:35.678Z,22.75
2018-08-24T02:29:16.240Z,22.68
2018-08-24T02:29:56.812Z,22.62
2018-08-24T02:30:37.425Z,22.66
2018-08-24T02:31:18.008Z,22.69
2018-08-24T02:31:58.509Z,22.69
2018-08-24T02:32:39.074Z,22.65
2018-08-24T02:33:19.643Z,22.55
2018-08-24T02:34:00.206Z,22.68
2018-08-24T02:34:40.785Z,22.6
2018-08-24T02:35:21.345Z,22.55
2018-08-24T02:36:01.912Z,22.54
2018-08-24T02:36:42.478Z,22.59
2018-08-24T02:37:23.069Z,22.59
2018-08-24T02:38:03.650Z,22.6
2018-08-24T02:38:44.209Z,22.62
2018-08-24T02:39:24.832Z,22.68
2018-08-24T02:40:05.394Z,22.65
2018-08-24T02:40:45.987Z,22.65
2018-08-24T02:41:26.545Z,22.68
2018-08-24T02:42:07.165Z,22.62
2018-08-24T02:42:47.670Z,22.6
2018-08-24T02:43:28.231Z,22.81
2018-08-24T02:44:08.800Z,22.68
2018-08-24T02:44:49.361Z,22.59
2018-08-24T02:45:29.921Z,22.76
2018-08-24T02:46:10.481Z,22.62
2018-08-24T02:46:51.042Z,22.68
2018-08-24T02:47:31.601Z,22.68
2018-08-24T02:48:12.169Z,22.7
2018-08-24T02:48:52.746Z,22.75
2018-08-24T02:49:33.295Z,22.73
2018-08-24T02:50:13.880Z,22.8
2018-08-24T02:50:54.440Z,22.76
2018-08-24T02:51:35.033Z,22.81
2018-08-24T02:52:15.608Z,22.78
2018-08-24T02:52:56.179Z,22.75
2018-08-24T02:53:36.766Z,22.63
2018-08-24T02:54:17.335Z,22.7
2018-08-24T02:54:57.898Z,22.72
2018-08-24T02:55:38.474Z,22.63
2018-08-24T02:56:19.038Z,22.62
2018-08-24T02:56:59.606Z,22.69
2018-08-24T02:57:40.170Z,22.59
2018-08-24T02:58:20.746Z,22.76
2018-08-24T02:59:01.316Z,22.72
2018-08-24T02:59:41.867Z,22.66
2018-08-24T03:00:22.441Z,22.73
2018-08-24T03:01:02.989Z,22.73
2018-08-24T03:01:43.569Z,22.75
2018-08-24T03:02:24.133Z,22.72
2018-08-24T03:03:04.702Z,22.73
2018-08-24T03:03:45.265Z,22.8
2018-08-24T03:04:25.858Z,22.66
2018-08-24T03:05:06.432Z,22.66
2018-08-24T03:05:46.966Z,22.78
2018-08-24T03:06:27.519Z,22.63
2018-08-24T03:07:08.130Z,22.8
2018-08-24T03:07:48.683Z,22.75
2018-08-24T03:08:29.245Z,22.73
2018-08-24T03:09:09.878Z,22.73
2018-08-24T03:09:50.427Z,22.69
2018-08-24T03:10:31.014Z,22.73
2018-08-24T03:11:11.663Z,22.81
2018-08-24T03:11:52.245Z,22.76
2018-08-24T03:12:32.879Z,22.68
2018-08-24T03:13:13.466Z,22.78
2018-08-24T03:13:54.051Z,22.81
2018-08-24T03:14:34.624Z,22.83
2018-08-24T03:15:15.181Z,22.72
2018-08-24T03:15:55.788Z,22.83
2018-08-24T03:16:36.360Z,22.72
2018-08-24T03:17:16.910Z,22.87
2018-08-24T03:17:57.470Z,22.87
2018-08-24T03:18:38.025Z,22.87
2018-08-24T03:19:18.580Z,22.83
2018-08-24T03:19:59.135Z,22.83
2018-08-24T03:20:39.679Z,22.81
2018-08-24T03:21:20.231Z,22.85
2018-08-24T03:22:00.812Z,22.88
2018-08-24T03:22:41.465Z,22.73
2018-08-24T03:23:22.015Z,22.75
2018-08-24T03:24:02.583Z,22.87
2018-08-24T03:24:43.160Z,22.88
2018-08-24T03:25:23.707Z,22.78
2018-08-24T03:26:04.266Z,22.84
2018-08-24T03:26:44.830Z,22.76
2018-08-24T03:27:25.385Z,22.8
2018-08-24T03:28:05.986Z,22.78
2018-08-24T03:28:46.544Z,22.8
2018-08-24T03:29:27.115Z,22.8
2018-08-24T03:30:07.683Z,22.91
2018-08-24T03:30:48.261Z,22.76
2018-08-24T03:31:28.820Z,22.78
2018-08-24T03:32:09.626Z,22.81
2018-08-24T03:32:50.195Z,22.78
2018-08-24T03:33:30.760Z,22.85
2018-08-24T03:34:11.300Z,22.87
2018-08-24T03:34:51.862Z,22.78
2018-08-24T03:35:32.431Z,22.75
2018-08-24T03:36:13.011Z,22.81
2018-08-24T03:36:53.682Z,22.75
2018-08-24T03:37:34.247Z,22.76
2018-08-24T03:38:14.824Z,22.78
2018-08-24T03:38:55.387Z,22.8
2018-08-24T03:39:35.961Z,22.81
2018-08-24T03:40:16.551Z,22.78
2018-08-24T03:40:57.114Z,22.78
2018-08-24T03:41:37.694Z,22.76
2018-08-24T03:42:18.247Z,22.72
2018-08-24T03:42:58.822Z,22.81
2018-08-24T03:43:39.373Z,22.78
2018-08-24T03:44:19.941Z,22.8
2018-08-24T03:45:00.506Z,22.8
2018-08-24T03:45:41.129Z,22.7
2018-08-24T03:46:21.645Z,22.69
2018-08-24T03:47:02.256Z,22.72
2018-08-24T03:47:42.781Z,22.8
2018-08-24T03:48:23.348Z,22.72
2018-08-24T03:49:03.956Z,22.68
2018-08-24T03:49:44.508Z,22.68
2018-08-24T03:50:25.083Z,22.72
2018-08-24T03:51:05.634Z,22.63
2018-08-24T03:51:46.188Z,22.66
2018-08-24T03:52:26.745Z,22.68
2018-08-24T03:53:07.423Z,22.75
2018-08-24T03:53:47.945Z,22.69
2018-08-24T03:54:28.553Z,22.66
2018-08-24T03:55:09.146Z,22.66
2018-08-24T03:55:49.703Z,22.66
2018-08-24T03:56:30.315Z,22.57
2018-08-24T03:57:10.872Z,22.63
2018-08-24T03:57:51.490Z,22.57
2018-08-24T03:58:32.045Z,22.59
2018-08-24T03:59:12.585Z,22.7
2018-08-24T03:59:53.148Z,22.65
2018-08-24T04:00:33.736Z,22.68
2018-08-24T04:01:14.287Z,22.72
2018-08-24T04:01:54.860Z,22.7
2018-08-24T04:02:35.422Z,22.6
2018-08-24T04:03:15.998Z,22.73
2018-08-24T04:03:56.550Z,22.75
2018-08-24T04:04:37.195Z,22.72
2018-08-24T04:05:17.753Z,22.66
2018-08-24T04:05:58.308Z,22.81
2018-08-24T04:06:38.877Z,22.78
2018-08-24T04:07:19.446Z,22.72
2018-08-24T04:08:00.026Z,22.75
2018-08-24T04:08:40.593Z,22.73
2018-08-24T04:09:21.163Z,22.63
2018-08-24T04:10:01.767Z,22.73
2018-08-24T04:10:42.336Z,22.62
2018-08-24T04:11:22.904Z,22.68
2018-08-24T04:12:03.520Z,22.69
2018-08-24T04:12:44.120Z,22.62
2018-08-24T04:13:24.638Z,22.69
2018-08-24T04:14:05.209Z,22.78
2018-08-24T04:14:45.781Z,22.59
2018-08-24T04:15:26.341Z,22.68
2018-08-24T04:16:06.935Z,22.68
2018-08-24T04:16:47.500Z,22.59
2018-08-24T04:17:28.063Z,22.59
2018-08-24T04:18:08.660Z,22.68
2018-08-24T04:18:49.264Z,22.72
2018-08-24T04:19:29.979Z,22.68
2018-08-24T04:20:10.378Z,22.7
2018-08-24T04:20:50.975Z,22.69
2018-08-24T04:21:31.508Z,22.73
2018-08-24T04:22:12.097Z,22.72
2018-08-24T04:22:52.673Z,22.62
2018-08-24T04:23:33.231Z,22.62
2018-08-24T04:24:13.796Z,22.57
2018-08-24T04:24:54.365Z,22.65
2018-08-24T04:25:35.004Z,22.62
2018-08-24T04:26:15.513Z,22.65
2018-08-24T04:26:56.106Z,22.66
2018-08-24T04:27:36.676Z,22.69
2018-08-24T04:28:17.262Z,22.62
2018-08-24T04:28:57.830Z,22.65
2018-08-24T04:29:38.384Z,22.63
2018-08-24T04:30:18.949Z,22.68
2018-08-24T04:30:59.513Z,22.63
2018-08-24T04:31:40.080Z,22.55
2018-08-24T04:32:20.709Z,22.62
2018-08-24T04:33:01.217Z,22.55
2018-08-24T04:33:41.789Z,22.66
2018-08-24T04:34:22.343Z,22.63
2018-08-24T04:35:02.990Z,22.59
2018-08-24T04:35:43.462Z,22.65
2018-08-24T04:36:24.222Z,22.69
2018-08-24T04:37:04.773Z,22.62
2018-08-24T04:37:45.368Z,22.59
2018-08-24T04:38:25.911Z,22.6
2018-08-24T04:39:06.487Z,22.68
2018-08-24T04:39:47.053Z,22.6
2018-08-24T04:40:27.810Z,22.59
2018-08-24T04:41:08.180Z,22.57
2018-08-24T04:41:48.750Z,22.65
2018-08-24T04:42:29.314Z,22.69
2018-08-24T04:43:09.884Z,22.69
2018-08-24T04:43:50.452Z,22.6
2018-08-24T04:44:31.017Z,22.7
2018-08-24T04:45:11.584Z,22.62
2018-08-24T04:45:52.142Z,22.54
2018-08-24T04:46:32.726Z,22.57
2018-08-24T04:47:13.298Z,22.55
2018-08-24T04:47:53.858Z,22.6
2018-08-24T04:48:34.423Z,22.54
2018-08-24T04:49:14.982Z,22.5
2018-08-24T04:49:55.595Z,22.53
2018-08-24T04:50:36.157Z,22.53
2018-08-24T04:51:16.759Z,22.41
2018-08-24T04:51:57.357Z,22.45
2018-08-24T04:52:37.931Z,22.44
2018-08-24T04:53:18.488Z,22.48
2018-08-24T04:53:59.088Z,22.48
2018-08-24T04:54:39.661Z,22.44
2018-08-24T04:55:20.235Z,22.44
2018-08-24T04:56:00.898Z,22.33
2018-08-24T04:56:41.485Z,22.45
2018-08-24T04:57:22.063Z,22.38
2018-08-24T04:58:02.617Z,22.48
2018-08-24T04:58:43.238Z,22.39
2018-08-24T04:59:23.969Z,22.43
2018-08-24T05:00:04.446Z,22.41
2018-08-24T05:00:45.013Z,22.35
2018-08-24T05:01:25.587Z,22.43
2018-08-24T05:02:06.155Z,22.43
2018-08-24T05:02:46.731Z,22.38
2018-08-24T05:03:27.313Z,22.41
2018-08-24T05:04:07.878Z,22.41
2018-08-24T05:04:48.452Z,22.39
2018-08-24T05:05:29.023Z,22.47
2018-08-24T05:06:09.578Z,22.5
2018-08-24T05:06:50.157Z,22.36
2018-08-24T05:07:30.734Z,22.35
2018-08-24T05:08:11.342Z,22.36
2018-08-24T05:08:51.889Z,22.43
2018-08-24T05:09:32.473Z,22.38
2018-08-24T05:10:13.034Z,22.44
2018-08-24T05:10:53.607Z,22.43
2018-08-24T05:11:34.167Z,22.38
2018-08-24T05:12:14.737Z,22.45
2018-08-24T05:12:55.300Z,22.43
2018-08-24T05:13:35.881Z,22.43
2018-08-24T05:14:16.464Z,22.44
2018-08-24T05:14:57.036Z,22.45
2018-08-24T05:15:37.599Z,22.41
2018-08-24T05:16:18.213Z,22.43
2018-08-24T05:16:58.773Z,22.44
2018-08-24T05:17:39.338Z,22.38
2018-08-24T05:18:19.907Z,22.36
2018-08-24T05:19:00.494Z,22.48
2018-08-24T05:19:41.072Z,22.3
2018-08-24T05:20:21.654Z,22.36
2018-08-24T05:21:02.225Z,22.41
2018-08-24T05:21:42.848Z,22.39
2018-08-24T05:22:23.351Z,22.33
2018-08-24T05:23:03.979Z,22.36
2018-08-24T05:23:44.554Z,22.36
2018-08-24T05:24:25.128Z,22.3
2018-08-24T05:25:05.699Z,22.29
2018-08-24T05:25:46.255Z,22.26
2018-08-24T05:26:26.814Z,22.36
2018-08-24T05:27:07.384Z,22.39
2018-08-24T05:27:47.935Z,22.29
2018-08-24T05:28:28.515Z,22.32
2018-08-24T05:29:09.091Z,22.35
2018-08-24T05:29:49.658Z,22.32
2018-08-24T05:30:30.218Z,22.28
2018-08-24T05:31:10.795Z,22.43
2018-08-24T05:31:51.374Z,22.3
2018-08-24T05:32:31.971Z,22.35
2018-08-24T05:33:12.534Z,22.41
2018-08-24T05:33:53.093Z,22.25
2018-08-24T05:34:33.655Z,22.29
2018-08-24T05:35:14.233Z,22.23
2018-08-24T05:35:54.809Z,22.29
2018-08-24T05:36:35.357Z,22.3
2018-08-24T05:37:15.932Z,22.38
2018-08-24T05:37:56.486Z,22.38
2018-08-24T05:38:37.042Z,22.26
2018-08-24T05:39:17.617Z,22.33
2018-08-24T05:39:58.191Z,22.33
2018-08-24T05:40:38.759Z,22.33
2018-08-24T05:41:19.335Z,22.3
2018-08-24T05:41:59.881Z,22.3
2018-08-24T05:42:40.445Z,22.35
2018-08-24T05:43:21.004Z,22.41
2018-08-24T05:44:01.571Z,22.32
2018-08-24T05:44:42.147Z,22.3
2018-08-24T05:45:22.785Z,22.35
2018-08-24T05:46:03.342Z,22.38
2018-08-24T05:46:43.904Z,22.38
2018-08-24T05:47:24.463Z,22.45
2018-08-24T05:48:05.033Z,22.44
2018-08-24T05:48:45.628Z,22.43
2018-08-24T05:49:26.198Z,22.47
2018-08-24T05:50:06.752Z,22.33
2018-08-24T05:50:47.324Z,22.35
2018-08-24T05:51:27.884Z,22.5
2018-08-24T05:52:08.455Z,22.43
2018-08-24T05:52:49.080Z,22.44
2018-08-24T05:53:29.625Z,22.43
2018-08-24T05:54:10.185Z,22.39
2018-08-24T05:54:50.749Z,22.48
2018-08-24T05:55:31.342Z,22.41
2018-08-24T05:56:11.894Z,22.39
2018-08-24T05:56:52.487Z,22.45
2018-08-24T05:57:33.063Z,22.44
2018-08-24T05:58:13.667Z,22.41
2018-08-24T05:58:54.249Z,22.39
2018-08-24T05:59:34.819Z,22.44
2018-08-24T06:00:15.386Z,22.5
2018-08-24T06:00:55.949Z,22.45
2018-08-24T06:01:36.511Z,22.41
2018-08-24T06:02:17.081Z,22.47
2018-08-24T06:02:57.659Z,22.5
2018-08-24T06:03:38.306Z,22.43
2018-08-24T06:04:18.882Z,22.48
2018-08-24T06:04:59.457Z,22.39
2018-08-24T06:05:40.124Z,22.53
2018-08-24T06:06:20.605Z,22.44
2018-08-24T06:07:01.171Z,22.5
2018-08-24T06:07:41.732Z,22.57
2018-08-24T06:08:22.303Z,22.48
2018-08-24T06:09:02.905Z,22.5
2018-08-24T06:09:43.484Z,22.45
2018-08-24T06:10:24.049Z,22.45
2018-08-24T06:11:04.623Z,22.43
2018-08-24T06:11:45.225Z,22.44
2018-08-24T06:12:25.798Z,22.41
2018-08-24T06:13:06.361Z,22.57
2018-08-24T06:13:46.968Z,22.55
2018-08-24T06:14:27.542Z,22.5
2018-08-24T06:15:08.133Z,22.6
2018-08-24T06:15:48.741Z,22.55
2018-08-24T06:16:29.271Z,22.59
2018-08-24T06:17:09.853Z,22.69
2018-08-24T06:17:50.414Z,22.63
2018-08-24T06:18:30.979Z,22.65
2018-08-24T06:19:11.541Z,22.72
2018-08-24T06:19:52.137Z,22.68
2018-08-24T06:20:32.721Z,22.69
2018-08-24T06:21:13.276Z,22.63
2018-08-24T06:21:53.823Z,22.6
2018-08-24T06:22:34.388Z,22.68
2018-08-24T06:23:14.945Z,22.69
2018-08-24T06:23:55.526Z,22.57
2018-08-24T06:24:36.206Z,22.5
2018-08-24T06:25:17.441Z,22.57
2018-08-24T06:25:58.034Z,22.57
2018-08-24T06:26:38.563Z,22.63
2018-08-24T06:27:19.152Z,22.62
2018-08-24T06:27:59.739Z,22.62
2018-08-24T06:28:40.336Z,22.6
2018-08-24T06:29:20.919Z,22.62
2018-08-24T06:30:01.495Z,22.6
2018-08-24T06:30:42.066Z,22.54
2018-08-24T06:31:22.752Z,22.55
2018-08-24T06:32:03.397Z,22.57
2018-08-24T06:32:44.068Z,22.51
2018-08-24T06:33:24.616Z,22.45
2018-08-24T06:34:05.210Z,22.45
2018-08-24T06:34:45.818Z,22.38
2018-08-24T06:35:26.406Z,22.33
2018-08-24T06:36:07.007Z,22.3
2018-08-24T06:36:47.610Z,22.26
2018-08-24T06:37:28.448Z,22.3
2018-08-24T06:38:09.696Z,22.26
2018-08-24T06:38:50.031Z,22.2
2018-08-24T06:39:30.622Z,22.22
2018-08-24T06:40:11.264Z,22.22
2018-08-24T06:40:51.942Z,22.28
2018-08-24T06:41:32.685Z,22.25
2018-08-24T06:42:13.334Z,22.22
2018-08-24T06:42:53.884Z,22.22
2018-08-24T06:43:34.454Z,22.26
2018-08-24T06:44:15.007Z,22.35
2018-08-24T06:44:55.713Z,22.25
2018-08-24T06:45:36.379Z,22.22
2018-08-24T06:46:16.942Z,22.22
2018-08-24T06:46:57.550Z,22.2
2018-08-24T06:47:38.206Z,22.28
2018-08-24T06:48:18.876Z,22.25
2018-08-24T06:48:59.456Z,22.25
2018-08-24T06:49:40.021Z,22.26
2018-08-24T06:50:20.636Z,22.25
2018-08-24T06:51:01.290Z,22.26
2018-08-24T06:51:41.870Z,22.3
2018-08-24T06:52:22.437Z,22.33
2018-08-24T06:53:03.260Z,22.44
2018-08-24T06:53:44.040Z,22.33
2018-08-24T06:54:24.497Z,22.33
2018-08-24T06:55:05.093Z,22.48
2018-08-24T06:55:45.793Z,22.44
2018-08-24T06:56:26.378Z,22.47
2018-08-24T06:57:06.928Z,22.5
2018-08-24T06:57:47.545Z,22.48
2018-08-24T06:58:28.209Z,22.53
2018-08-24T06:59:08.874Z,22.47
2018-08-24T06:59:49.573Z,22.54
2018-08-24T07:00:30.311Z,22.51
2018-08-24T07:01:11.015Z,22.54
2018-08-24T07:01:51.502Z,22.48
2018-08-24T07:02:32.119Z,22.53
2018-08-24T07:03:12.793Z,22.62
2018-08-24T07:03:53.402Z,22.6
2018-08-24T07:04:33.954Z,22.53
2018-08-24T07:05:14.554Z,22.59
2018-08-24T07:05:55.323Z,22.55
2018-08-24T07:06:35.788Z,22.7
2018-08-24T07:07:16.372Z,22.68
2018-08-24T07:07:56.962Z,22.7
2018-08-24T07:08:37.522Z,22.72
2018-08-24T07:09:18.125Z,22.68
2018-08-24T07:09:58.656Z,22.81
2018-08-24T07:10:39.237Z,22.73
2018-08-24T07:11:19.818Z,22.8
2018-08-24T07:12:00.454Z,22.88
2018-08-24T07:12:41.052Z,22.75
2018-08-24T07:13:21.656Z,22.78
2018-08-24T07:14:02.252Z,22.87
2018-08-24T07:14:42.858Z,22.78
2018-08-24T07:15:23.420Z,22.8
2018-08-24T07:16:03.968Z,22.78
2018-08-24T07:16:44.583Z,22.81
2018-08-24T07:17:25.190Z,22.84
2018-08-24T07:18:05.815Z,22.81
2018-08-24T07:18:46.411Z,22.76
2018-08-24T07:19:26.988Z,22.75
2018-08-24T07:20:07.589Z,22.8
2018-08-24T07:20:48.223Z,22.76
2018-08-24T07:21:28.848Z,22.75
2018-08-24T07:22:09.430Z,22.78
2018-08-24T07:22:49.984Z,22.84
2018-08-24T07:23:30.549Z,22.88
2018-08-24T07:24:11.150Z,22.84
2018-08-24T07:24:51.732Z,22.83
2018-08-24T07:25:32.325Z,22.75
2018-08-24T07:26:12.899Z,22.81
2018-08-24T07:26:53.500Z,22.81
2018-08-24T07:27:34.070Z,22.75
2018-08-24T07:28:14.637Z,22.84
2018-08-24T07:28:55.203Z,22.81
2018-08-24T07:29:35.776Z,22.83
2018-08-24T07:30:16.329Z,23
2018-08-24T07:30:56.895Z,23.18
2018-08-24T07:31:37.452Z,23.36
2018-08-24T07:32:18.016Z,23.47
2018-08-24T07:32:58.627Z,23.63
2018-08-24T07:33:39.159Z,23.76
2018-08-24T07:34:19.720Z,23.99
2018-08-24T07:35:00.286Z,24.1
2018-08-24T07:35:40.917Z,24.17
2018-08-24T07:36:21.466Z,24.16
2018-08-24T07:37:02.033Z,24.24
2018-08-24T07:37:42.590Z,24.18
2018-08-24T07:38:23.150Z,24.17
2018-08-24T07:39:03.717Z,24.14
2018-08-24T07:39:44.278Z,24.1
2018-08-24T07:40:24.868Z,23.95
2018-08-24T07:41:05.421Z,23.95
2018-08-24T07:41:46.001Z,23.95
2018-08-24T07:42:26.555Z,23.84
2018-08-24T07:43:07.128Z,23.87
2018-08-24T07:43:47.700Z,23.87
2018-08-24T07:44:28.277Z,23.8
2018-08-24T07:45:08.846Z,23.84
2018-08-24T07:45:49.400Z,23.86
2018-08-24T07:46:29.987Z,23.92
2018-08-24T07:47:10.563Z,23.98
2018-08-24T07:47:51.126Z,24.18
2018-08-24T07:48:31.744Z,24.2
2018-08-24T07:49:12.319Z,24.16
2018-08-24T07:49:52.885Z,24.17
2018-08-24T07:50:33.451Z,24.24
2018-08-24T07:51:14.014Z,24.32
2018-08-24T07:51:54.617Z,24.39
2018-08-24T07:52:35.190Z,24.42
2018-08-24T07:53:15.767Z,24.43
2018-08-24T07:53:56.337Z,24.38
2018-08-24T07:54:36.906Z,24.32
2018-08-24T07:55:17.465Z,24.4
2018-08-24T07:55:58.030Z,24.3
2018-08-24T07:56:38.600Z,24.26
2018-08-24T07:57:19.169Z,24.18
2018-08-24T07:57:59.730Z,24.17
2018-08-24T07:58:40.318Z,24.11
2018-08-24T07:59:20.892Z,23.99
2018-08-24T08:00:01.497Z,23.99
2018-08-24T08:00:42.057Z,23.92
2018-08-24T08:01:22.666Z,23.91
2018-08-24T08:02:03.239Z,23.91
2018-08-24T08:02:43.811Z,23.8
2018-08-24T08:03:24.391Z,23.77
2018-08-24T08:04:04.961Z,23.73
2018-08-24T08:04:45.523Z,23.71
2018-08-24T08:05:26.232Z,23.73
2018-08-24T08:06:06.693Z,23.68
2018-08-24T08:06:47.259Z,23.59
2018-08-24T08:07:27.867Z,23.51
2018-08-24T08:08:08.430Z,23.54
2018-08-24T08:08:49.006Z,23.51
2018-08-24T08:09:29.567Z,23.56
2018-08-24T08:10:10.129Z,23.54
2018-08-24T08:10:50.707Z,23.5
2018-08-24T08:11:31.277Z,23.48
2018-08-24T08:12:11.866Z,23.5
2018-08-24T08:12:52.447Z,23.47
2018-08-24T08:13:33.056Z,23.54
2018-08-24T08:14:13.655Z,23.48
2018-08-24T08:14:54.218Z,23.54
2018-08-24T08:15:34.788Z,23.48
2018-08-24T08:16:15.356Z,23.47
2018-08-24T08:16:55.911Z,23.51
2018-08-24T08:17:36.497Z,23.51
2018-08-24T08:18:17.177Z,23.48
2018-08-24T08:18:57.619Z,23.36
2018-08-24T08:19:38.168Z,23.44
2018-08-24T08:20:18.779Z,23.43
2018-08-24T08:20:59.384Z,23.37
2018-08-24T08:21:39.973Z,23.32
2018-08-24T08:22:20.525Z,23.36
2018-08-24T08:23:01.101Z,23.36
2018-08-24T08:23:41.683Z,23.43
2018-08-24T08:24:22.272Z,23.36
2018-08-24T08:25:02.843Z,23.39
2018-08-24T08:25:43.417Z,23.23
2018-08-24T08:26:24.024Z,23.36
2018-08-24T08:27:04.596Z,23.32
2018-08-24T08:27:45.191Z,23.31
2018-08-24T08:28:25.771Z,23.25
2018-08-24T08:29:06.358Z,23.21
2018-08-24T08:29:46.898Z,23.12
2018-08-24T08:30:27.497Z,23.13
2018-08-24T08:31:08.107Z,23.17
2018-08-24T08:31:48.876Z,23.24
2018-08-24T08:32:29.434Z,23.18
2018-08-24T08:33:10.024Z,23.12
2018-08-24T08:33:50.599Z,23.13
2018-08-24T08:34:31.164Z,23.12
2018-08-24T08:35:11.731Z,23.08
2018-08-24T08:35:52.291Z,23.21
2018-08-24T08:36:32.859Z,23.12
2018-08-24T08:37:13.428Z,23.09
2018-08-24T08:37:54.027Z,23.13
2018-08-24T08:38:34.568Z,23.08
2018-08-24T08:39:15.179Z,23.17
2018-08-24T08:39:55.755Z,23.15
2018-08-24T08:40:36.341Z,23.18
2018-08-24T08:41:16.889Z,23.2
2018-08-24T08:41:57.447Z,23.2
2018-08-24T08:42:38.050Z,23.18
2018-08-24T08:43:18.751Z,23.34
2018-08-24T08:43:59.354Z,23.37
2018-08-24T08:44:39.952Z,23.39